Time;durP1;ratioP1;P1;durP2;ratioP2;P2;SDS_P1;SDS_P2;PMS_P1;PMS_P2;Temp;Humidity;BMP_temperature;BMP_pressure;BME280_temperature;BME280_humidity;BME280_pressure;Samples;Min_cycle;Max_cycle;Signal;HPM_P1;HPM_P2
2022/10/29 00:02:19;;;;;;;1.02;1.00;;;;;;;;;;5056929;28;20049;-88
2022/10/29 00:04:46;;;;;;;1.60;1.48;;;;;;;;;;5068678;28;20045;-89
2022/10/29 00:07:12;;;;;;;1.52;1.42;;;;;;;;;;5059778;28;20045;-88
2022/10/29 00:09:39;;;;;;;0.60;0.60;;;;;;;;;;5062898;28;20102;-87
2022/10/29 00:12:06;;;;;;;2.38;0.77;;;;;;;;;;5075616;28;20040;-87
2022/10/29 00:14:32;;;;;;;1.10;1.08;;;;;;;;;;5070635;28;20439;-87
2022/10/29 00:17:00;;;;;;;0.73;0.73;;;;;;;;;;5055806;28;20045;-87
2022/10/29 00:19:27;;;;;;;1.58;1.38;;;;;;;;;;5055616;28;20053;-87
2022/10/29 00:21:54;;;;;;;1.75;1.65;;;;;;;;;;5055412;28;20049;-87
2022/10/29 00:24:20;;;;;;;0.47;0.45;;;;;;;;;;5055581;28;20041;-87
2022/10/29 00:26:46;;;;;;;1.88;1.02;;;;;;;;;;5055194;28;20103;-87
2022/10/29 00:29:13;;;;;;;0.73;0.73;;;;;;;;;;5057271;28;20110;-86
2022/10/29 00:31:40;;;;;;;0.52;0.52;;;;;;;;;;5075649;28;20056;-87
2022/10/29 00:34:07;;;;;;;1.92;1.23;;;;;;;;;;5075088;28;20052;-87
2022/10/29 00:36:34;;;;;;;1.15;1.00;;;;;;;;;;5075230;28;20450;-87
2022/10/29 00:39:00;;;;;;;0.57;0.57;;;;;;;;;;5075439;28;20098;-87
2022/10/29 00:41:29;;;;;;;4.78;2.65;;;;;;;;;;5054908;28;20067;-86
2022/10/29 00:44:10;;;;;;;0.55;0.55;;;;;;;;;;5054848;28;20119;-86
2022/10/29 00:46:37;;;;;;;1.73;1.58;;;;;;;;;;5055100;28;20106;-87
2022/10/29 00:49:03;;;;;;;0.93;0.93;;;;;;;;;;5055488;28;20053;-87
2022/10/29 00:51:32;;;;;;;8.23;1.17;;;;;;;;;;5074991;28;20098;-88
2022/10/29 00:54:02;;;;;;;1.67;1.58;;;;;;;;;;5075429;28;20106;-88
2022/10/29 00:56:29;;;;;;;1.48;1.38;;;;;;;;;;5075413;28;20106;-88
2022/10/29 00:58:56;;;;;;;2.72;0.82;;;;;;;;;;5068899;28;20106;-88
2022/10/29 01:01:22;;;;;;;1.00;0.70;;;;;;;;;;5073402;28;20048;-88
2022/10/29 01:03:49;;;;;;;1.23;0.82;;;;;;;;;;5074008;28;20049;-88
2022/10/29 01:06:15;;;;;;;1.20;1.10;;;;;;;;;;5075506;28;20098;-88
2022/10/29 01:08:43;;;;;;;1.05;1.02;;;;;;;;;;5075605;28;20056;-88
2022/10/29 01:11:16;;;;;;;1.77;1.67;;;;;;;;;;5075282;28;20102;-87
2022/10/29 01:13:47;;;;;;;1.80;0.50;;;;;;;;;;5074376;28;20044;-87
2022/10/29 01:16:19;;;;;;;0.77;0.77;;;;;;;;;;5074944;28;20055;-88
2022/10/29 01:18:49;;;;;;;0.68;0.68;;;;;;;;;;5074951;28;20135;-88
2022/10/29 01:21:36;;;;;;;2.22;2.13;;;;;;;;;;5058372;28;20053;-87
2022/10/29 01:24:20;;;;;;;1.25;1.17;;;;;;;;;;5054583;28;20091;-87
2022/10/29 01:26:54;;;;;;;1.38;1.20;;;;;;;;;;5054273;28;20126;-87
2022/10/29 01:29:29;;;;;;;0.60;0.60;;;;;;;;;;5054758;28;20056;-86
2022/10/29 01:32:00;;;;;;;0.43;0.35;;;;;;;;;;5054152;28;20106;-87
2022/10/29 01:34:33;;;;;;;0.85;0.82;;;;;;;;;;5054691;28;20110;-87
2022/10/29 01:37:02;;;;;;;1.02;0.93;;;;;;;;;;5074643;28;20052;-87
2022/10/29 01:39:34;;;;;;;1.55;1.45;;;;;;;;;;5074432;28;20094;-88
2022/10/29 01:42:05;;;;;;;3.53;1.48;;;;;;;;;;5053687;28;20045;-87
2022/10/29 01:44:34;;;;;;;0.88;0.70;;;;;;;;;;5053890;28;20099;-87
2022/10/29 01:47:03;;;;;;;0.60;0.60;;;;;;;;;;5074175;28;20131;-87
2022/10/29 01:49:34;;;;;;;1.75;1.23;;;;;;;;;;5074474;28;20056;-87
2022/10/29 01:52:01;;;;;;;1.35;1.25;;;;;;;;;;5074424;28;20110;-87
2022/10/29 01:54:28;;;;;;;0.63;0.50;;;;;;;;;;5074804;28;20041;-87
2022/10/29 01:56:55;;;;;;;1.48;1.38;;;;;;;;;;5073950;28;20040;-87
2022/10/29 01:59:22;;;;;;;0.40;0.35;;;;;;;;;;5073799;28;20048;-87
2022/10/29 02:01:55;;;;;;;0.70;0.70;;;;;;;;;;5074008;28;20446;-87
2022/10/29 02:04:40;;;;;;;0.30;0.30;;;;;;;;;;5074204;28;20048;-88
2022/10/29 02:07:12;;;;;;;0.30;0.30;;;;;;;;;;5054235;28;20064;-87
2022/10/29 02:09:41;;;;;;;2.83;2.03;;;;;;;;;;5053735;28;20111;-87
2022/10/29 02:12:12;;;;;;;2.08;1.98;;;;;;;;;;5053947;28;20118;-87
2022/10/29 02:14:40;;;;;;;3.53;3.22;;;;;;;;;;5053100;28;20578;-87
2022/10/29 02:17:07;;;;;;;1.83;1.73;;;;;;;;;;5053465;28;20489;-88
2022/10/29 02:19:36;;;;;;;1.75;0.68;;;;;;;;;;5053961;28;20488;-88
2022/10/29 02:22:02;;;;;;;2.80;1.08;;;;;;;;;;5072496;28;20580;-88
2022/10/29 02:24:29;;;;;;;1.15;1.15;;;;;;;;;;5073651;28;20053;-88
2022/10/29 02:26:55;;;;;;;0.60;0.60;;;;;;;;;;5073921;28;20467;-88
2022/10/29 02:29:22;;;;;;;4.15;1.70;;;;;;;;;;5073323;28;20048;-88
2022/10/29 02:31:48;;;;;;;2.35;2.25;;;;;;;;;;5073267;28;20105;-88
2022/10/29 02:34:15;;;;;;;2.35;2.25;;;;;;;;;;5073135;28;20053;-88
2022/10/29 02:36:42;;;;;;;1.73;1.63;;;;;;;;;;5073360;28;20094;-88
2022/10/29 02:39:09;;;;;;;1.25;1.25;;;;;;;;;;5073691;28;20052;-89
2022/10/29 02:41:35;;;;;;;0.30;0.20;;;;;;;;;;5073357;28;20459;-88
2022/10/29 02:44:02;;;;;;;1.42;1.42;;;;;;;;;;5073262;28;20056;-88
2022/10/29 02:46:29;;;;;;;1.48;1.42;;;;;;;;;;5073297;28;20052;-88
2022/10/29 02:48:55;;;;;;;0.47;0.43;;;;;;;;;;5073149;28;20466;-87
2022/10/29 02:51:22;;;;;;;0.60;0.43;;;;;;;;;;5060858;28;20102;-87
2022/10/29 02:53:50;;;;;;;1.35;0.90;;;;;;;;;;5052946;28;20045;-87
2022/10/29 02:56:16;;;;;;;0.73;0.73;;;;;;;;;;5063183;28;20105;-87
2022/10/29 02:58:42;;;;;;;4.35;1.45;;;;;;;;;;5072936;28;20045;-87
2022/10/29 03:01:09;;;;;;;1.42;1.33;;;;;;;;;;5062950;28;20095;-87
2022/10/29 03:03:35;;;;;;;1.77;1.67;;;;;;;;;;5052760;28;20107;-87
2022/10/29 03:06:02;;;;;;;1.58;1.35;;;;;;;;;;5052572;28;20053;-87
2022/10/29 03:08:28;;;;;;;0.75;0.70;;;;;;;;;;5052438;28;20114;-86
2022/10/29 03:10:56;;;;;;;1.77;1.67;;;;;;;;;;5059102;28;20094;-86
2022/10/29 03:13:23;;;;;;;2.28;1.58;;;;;;;;;;5072375;28;20052;-87
2022/10/29 03:15:49;;;;;;;0.55;0.52;;;;;;;;;;5066489;28;20061;-86
2022/10/29 03:18:16;;;;;;;1.13;1.10;;;;;;;;;;5052240;28;20060;-86
2022/10/29 03:20:44;;;;;;;0.93;0.80;;;;;;;;;;5057153;28;20447;-86
2022/10/29 03:23:10;;;;;;;1.05;1.05;;;;;;;;;;5072580;28;20148;-86
2022/10/29 03:25:37;;;;;;;1.63;1.52;;;;;;;;;;5063556;28;20049;-86
2022/10/29 03:28:05;;;;;;;1.58;1.48;;;;;;;;;;5051998;28;20052;-86
2022/10/29 03:30:32;;;;;;;0.85;0.73;;;;;;;;;;5054757;28;20052;-86
2022/10/29 03:32:58;;;;;;;0.98;0.95;;;;;;;;;;5072139;28;20056;-87
2022/10/29 03:35:25;;;;;;;1.23;1.23;;;;;;;;;;5072081;28;20114;-88
2022/10/29 03:37:51;;;;;;;2.42;2.30;;;;;;;;;;5072893;28;20045;-88
2022/10/29 03:40:18;;;;;;;2.60;2.47;;;;;;;;;;5071679;28;20052;-87
2022/10/29 03:42:45;;;;;;;1.48;1.38;;;;;;;;;;5069193;28;20459;-87
2022/10/29 03:45:13;;;;;;;2.10;1.90;;;;;;;;;;5072131;28;20097;-88
2022/10/29 03:47:39;;;;;;;1.33;1.23;;;;;;;;;;5052792;28;20127;-88
2022/10/29 03:50:06;;;;;;;0.88;0.88;;;;;;;;;;5051893;28;20049;-87
2022/10/29 03:52:33;;;;;;;1.70;1.60;;;;;;;;;;5069961;28;20121;-87
2022/10/29 03:54:59;;;;;;;1.33;0.90;;;;;;;;;;5072121;28;20052;-87
2022/10/29 03:57:26;;;;;;;0.98;0.88;;;;;;;;;;5072551;28;20053;-88
2022/10/29 03:59:52;;;;;;;3.85;1.75;;;;;;;;;;5055966;28;20049;-87
2022/10/29 04:02:20;;;;;;;1.65;1.55;;;;;;;;;;5067438;28;20052;-88
2022/10/29 04:04:47;;;;;;;1.60;1.50;;;;;;;;;;5072513;28;20098;-87
2022/10/29 04:07:13;;;;;;;8.38;6.05;;;;;;;;;;5057658;28;20049;-88
2022/10/29 04:09:40;;;;;;;2.05;1.95;;;;;;;;;;5051759;28;20056;-87
2022/10/29 04:12:07;;;;;;;0.68;0.68;;;;;;;;;;5051930;28;20056;-87
2022/10/29 04:14:33;;;;;;;0.80;0.80;;;;;;;;;;5051674;28;20087;-87
2022/10/29 04:17:00;;;;;;;1.10;1.08;;;;;;;;;;5070799;28;20580;-86
2022/10/29 04:19:28;;;;;;;1.38;1.27;;;;;;;;;;5071375;28;20105;-86
2022/10/29 04:21:54;;;;;;;1.60;1.30;;;;;;;;;;5060370;28;20103;-86
2022/10/29 04:24:21;;;;;;;1.17;1.15;;;;;;;;;;5051199;28;20480;-86
2022/10/29 04:26:47;;;;;;;1.63;1.17;;;;;;;;;;5061363;28;20053;-86
2022/10/29 04:29:14;;;;;;;1.33;1.23;;;;;;;;;;5071208;28;20554;-86
2022/10/29 04:31:40;;;;;;;0.75;0.75;;;;;;;;;;5063185;28;20048;-88
2022/10/29 04:34:07;;;;;;;1.27;1.27;;;;;;;;;;5052112;28;20110;-88
2022/10/29 04:36:35;;;;;;;2.13;2.03;;;;;;;;;;5051835;28;20460;-88
2022/10/29 04:39:01;;;;;;;0.55;0.55;;;;;;;;;;5054571;28;20554;-88
2022/10/29 04:41:28;;;;;;;2.03;1.92;;;;;;;;;;5055461;28;20052;-88
2022/10/29 04:43:54;;;;;;;1.73;1.63;;;;;;;;;;5055469;28;20098;-88
2022/10/29 04:46:21;;;;;;;1.65;1.55;;;;;;;;;;5055448;28;20542;-89
2022/10/29 04:48:47;;;;;;;1.00;0.90;;;;;;;;;;5055582;28;20107;-89
2022/10/29 04:51:18;;;;;;;1.90;1.80;;;;;;;;;;5058862;28;20496;-87
2022/10/29 04:53:46;;;;;;;1.08;0.95;;;;;;;;;;5074876;28;20048;-87
2022/10/29 04:56:13;;;;;;;2.17;2.03;;;;;;;;;;5074559;28;20040;-87
2022/10/29 04:58:39;;;;;;;1.73;1.63;;;;;;;;;;5074772;28;20385;-87
2022/10/29 05:01:06;;;;;;;1.00;1.00;;;;;;;;;;5072462;28;20098;-88
2022/10/29 05:03:33;;;;;;;0.52;0.47;;;;;;;;;;5054583;28;20451;-88
2022/10/29 05:06:02;;;;;;;1.55;1.50;;;;;;;;;;5061653;28;20492;-88
2022/10/29 05:08:28;;;;;;;2.88;1.40;;;;;;;;;;5054816;28;20106;-88
2022/10/29 05:10:56;;;;;;;3.88;1.65;;;;;;;;;;5054652;28;20053;-87
2022/10/29 05:13:22;;;;;;;3.42;1.27;;;;;;;;;;5074778;28;20082;-88
2022/10/29 05:15:50;;;;;;;0.70;0.70;;;;;;;;;;5074311;28;20664;-88
2022/10/29 05:18:16;;;;;;;0.70;0.50;;;;;;;;;;5074327;28;20052;-87
2022/10/29 05:20:43;;;;;;;1.67;1.58;;;;;;;;;;5074465;28;20045;-87
2022/10/29 05:23:11;;;;;;;1.02;1.00;;;;;;;;;;5055710;28;20496;-87
2022/10/29 05:25:38;;;;;;;0.40;0.22;;;;;;;;;;5054248;28;20053;-87
2022/10/29 05:28:07;;;;;;;0.70;0.52;;;;;;;;;;5071259;28;20455;-88
2022/10/29 05:30:34;;;;;;;1.35;1.33;;;;;;;;;;5074177;28;20049;-88
2022/10/29 05:33:00;;;;;;;2.92;2.72;;;;;;;;;;5072409;28;20568;-89
2022/10/29 05:35:27;;;;;;;1.42;1.33;;;;;;;;;;5058931;28;20049;-88
2022/10/29 05:37:54;;;;;;;1.58;1.48;;;;;;;;;;5064294;28;20094;-88
2022/10/29 05:40:21;;;;;;;1.40;1.00;;;;;;;;;;5062845;28;20490;-88
2022/10/29 05:42:48;;;;;;;1.02;1.02;;;;;;;;;;5062880;28;20057;-89
2022/10/29 05:45:16;;;;;;;2.13;1.50;;;;;;;;;;5062787;28;20442;-87
2022/10/29 05:47:43;;;;;;;2.55;2.45;;;;;;;;;;5064697;28;20049;-87
2022/10/29 05:50:10;;;;;;;1.88;1.48;;;;;;;;;;5061835;28;20459;-88
2022/10/29 05:52:37;;;;;;;0.90;0.90;;;;;;;;;;5061947;28;20049;-88
2022/10/29 05:55:03;;;;;;;1.88;1.77;;;;;;;;;;5054242;28;20045;-87
2022/10/29 05:57:30;;;;;;;3.33;1.17;;;;;;;;;;5061851;28;20044;-88
2022/10/29 05:59:56;;;;;;;2.90;2.70;;;;;;;;;;5065278;28;20044;-87
2022/10/29 06:02:24;;;;;;;1.92;1.80;;;;;;;;;;5062936;28;20459;-88
2022/10/29 06:04:51;;;;;;;1.63;1.50;;;;;;;;;;5050752;28;20052;-87
2022/10/29 06:07:17;;;;;;;3.75;2.58;;;;;;;;;;5056381;28;20125;-87
2022/10/29 06:09:43;;;;;;;0.93;0.80;;;;;;;;;;5061471;28;20045;-87
2022/10/29 06:12:10;;;;;;;3.88;2.67;;;;;;;;;;5062546;28;20048;-87
2022/10/29 06:14:36;;;;;;;7.65;3.10;;;;;;;;;;5063798;28;20479;-87
2022/10/29 06:17:03;;;;;;;1.30;1.20;;;;;;;;;;5052443;28;20045;-87
2022/10/29 06:19:31;;;;;;;2.88;2.75;;;;;;;;;;5052425;28;20504;-87
2022/10/29 06:21:57;;;;;;;1.80;1.70;;;;;;;;;;5059617;28;20110;-88
2022/10/29 06:24:24;;;;;;;2.15;2.00;;;;;;;;;;5069155;28;20113;-87
2022/10/29 06:26:52;;;;;;;2.47;2.35;;;;;;;;;;5057855;28;20041;-87
2022/10/29 06:29:19;;;;;;;2.10;2.00;;;;;;;;;;5052886;28;20061;-87
2022/10/29 06:31:45;;;;;;;4.03;2.95;;;;;;;;;;5052197;28;20501;-87
2022/10/29 06:34:13;;;;;;;5.50;4.93;;;;;;;;;;5052163;28;20045;-87
2022/10/29 06:36:41;;;;;;;2.67;2.47;;;;;;;;;;5051995;28;20053;-88
2022/10/29 06:39:07;;;;;;;11.60;1.73;;;;;;;;;;5051667;28;20566;-88
2022/10/29 06:41:34;;;;;;;2.35;2.17;;;;;;;;;;5051619;28;20090;-88
2022/10/29 06:44:00;;;;;;;4.80;3.42;;;;;;;;;;5051301;28;20198;-88
2022/10/29 06:46:27;;;;;;;2.08;1.98;;;;;;;;;;5050724;28;20110;-88
2022/10/29 06:48:53;;;;;;;2.28;1.58;;;;;;;;;;5051793;28;20052;-88
2022/10/29 06:51:21;;;;;;;1.63;1.52;;;;;;;;;;5051933;28;20098;-88
2022/10/29 06:53:49;;;;;;;1.42;1.30;;;;;;;;;;5051874;28;20085;-87
2022/10/29 06:56:16;;;;;;;2.13;2.03;;;;;;;;;;5051593;28;20045;-88
2022/10/29 06:58:43;;;;;;;2.53;2.22;;;;;;;;;;5051750;28;20509;-88
2022/10/29 07:01:09;;;;;;;3.78;3.38;;;;;;;;;;5050674;28;20049;-88
2022/10/29 07:03:36;;;;;;;4.45;1.58;;;;;;;;;;5050368;28;20126;-88
2022/10/29 07:06:02;;;;;;;1.75;1.65;;;;;;;;;;5050897;28;20099;-88
2022/10/29 07:08:29;;;;;;;1.98;1.63;;;;;;;;;;5050746;28;20060;-88
2022/10/29 07:10:57;;;;;;;2.58;1.80;;;;;;;;;;5057257;28;20074;-88
2022/10/29 07:13:23;;;;;;;3.35;3.15;;;;;;;;;;5070083;28;20435;-88
2022/10/29 07:15:50;;;;;;;2.83;2.38;;;;;;;;;;5071286;28;20094;-89
2022/10/29 07:18:16;;;;;;;3.50;2.28;;;;;;;;;;5058460;28;20052;-88
2022/10/29 07:20:44;;;;;;;2.40;1.67;;;;;;;;;;5065074;28;20048;-88
2022/10/29 07:23:11;;;;;;;1.52;1.42;;;;;;;;;;5060254;28;20053;-88
2022/10/29 07:25:37;;;;;;;3.28;2.63;;;;;;;;;;5051784;28;20122;-88
2022/10/29 07:28:06;;;;;;;2.63;2.42;;;;;;;;;;5061733;28;20045;-88
2022/10/29 07:30:33;;;;;;;3.53;3.22;;;;;;;;;;5071184;28;20052;-88
2022/10/29 07:32:59;;;;;;;5.13;3.53;;;;;;;;;;5060301;28;20060;-88
2022/10/29 07:35:26;;;;;;;2.70;2.47;;;;;;;;;;5071749;28;20048;-88
2022/10/29 07:37:52;;;;;;;9.68;4.22;;;;;;;;;;5063066;28;20504;-88
2022/10/29 07:40:19;;;;;;;1.90;1.80;;;;;;;;;;5050996;28;20127;-88
2022/10/29 07:42:45;;;;;;;4.57;2.55;;;;;;;;;;5051708;28;20045;-88
2022/10/29 07:45:13;;;;;;;4.63;4.28;;;;;;;;;;5066848;28;20044;-88
2022/10/29 07:47:41;;;;;;;3.33;3.03;;;;;;;;;;5065820;28;20053;-88
2022/10/29 07:50:08;;;;;;;5.70;2.92;;;;;;;;;;5051529;28;20501;-87
2022/10/29 07:52:35;;;;;;;3.20;2.97;;;;;;;;;;5051413;28;20057;-88
2022/10/29 07:55:01;;;;;;;2.70;2.50;;;;;;;;;;5051402;28;20045;-87
2022/10/29 07:57:28;;;;;;;3.40;3.15;;;;;;;;;;5055125;28;20045;-88
2022/10/29 07:59:54;;;;;;;4.00;3.78;;;;;;;;;;5071504;28;20492;-87
2022/10/29 08:02:22;;;;;;;2.47;2.28;;;;;;;;;;5070461;28;20053;-88
2022/10/29 08:04:49;;;;;;;4.07;3.88;;;;;;;;;;5071074;28;20053;-88
2022/10/29 08:07:15;;;;;;;7.00;3.60;;;;;;;;;;5070159;28;20053;-87
2022/10/29 08:09:42;;;;;;;3.58;3.38;;;;;;;;;;5051611;28;20049;-87
2022/10/29 08:12:09;;;;;;;3.95;3.65;;;;;;;;;;5051293;28;20053;-88
2022/10/29 08:14:36;;;;;;;4.43;4.05;;;;;;;;;;5055460;28;20485;-87
2022/10/29 08:17:02;;;;;;;4.03;3.83;;;;;;;;;;5055086;28;20080;-88
2022/10/29 08:19:30;;;;;;;1.88;1.77;;;;;;;;;;5055489;28;20045;-87
2022/10/29 08:21:57;;;;;;;3.08;2.92;;;;;;;;;;5055496;28;20052;-87
2022/10/29 08:24:23;;;;;;;3.25;3.05;;;;;;;;;;5054987;28;20484;-87
2022/10/29 08:26:50;;;;;;;3.55;3.25;;;;;;;;;;5055368;28;20102;-87
2022/10/29 08:29:16;;;;;;;3.08;2.85;;;;;;;;;;5072623;28;20044;-87
2022/10/29 08:31:43;;;;;;;3.63;3.33;;;;;;;;;;5074643;28;20048;-87
2022/10/29 08:34:09;;;;;;;3.47;3.25;;;;;;;;;;5074957;28;20455;-88
2022/10/29 08:36:37;;;;;;;3.78;3.47;;;;;;;;;;5074629;28;20049;-87
2022/10/29 08:39:04;;;;;;;9.32;4.72;;;;;;;;;;5074461;28;20126;-87
2022/10/29 08:41:35;;;;;;;4.65;4.32;;;;;;;;;;5074984;28;20768;-86
2022/10/29 08:44:09;;;;;;;3.38;3.08;;;;;;;;;;5074447;28;20048;-88
2022/10/29 08:46:42;;;;;;;4.53;4.15;;;;;;;;;;5074370;28;20459;-88
2022/10/29 08:49:11;;;;;;;3.50;3.38;;;;;;;;;;5054757;28;20501;-88
2022/10/29 08:51:40;;;;;;;4.60;4.30;;;;;;;;;;5054275;28;20049;-87
2022/10/29 08:54:11;;;;;;;5.90;5.57;;;;;;;;;;5054725;28;20117;-87
2022/10/29 08:56:39;;;;;;;4.65;4.35;;;;;;;;;;5054697;28;20667;-86
2022/10/29 08:59:06;;;;;;;4.07;3.85;;;;;;;;;;5068100;28;20492;-87
2022/10/29 09:01:33;;;;;;;3.42;3.08;;;;;;;;;;5074283;28;20571;-87
2022/10/29 09:03:59;;;;;;;3.45;3.25;;;;;;;;;;5061041;28;20174;-88
2022/10/29 09:06:32;;;;;;;4.05;3.85;;;;;;;;;;5055946;28;20095;-86
2022/10/29 09:09:09;;;;;;;3.95;3.63;;;;;;;;;;5061866;28;20107;-87
2022/10/29 09:11:36;;;;;;;;;;;;;;;;;;5067767;28;20123;-87
2022/10/29 09:14:10;;;;;;;4.25;4.05;;;;;;;;;;5061525;28;19920;-88
2022/10/29 09:16:41;;;;;;;2.88;2.58;;;;;;;;;;5053659;28;20106;-87
2022/10/29 09:19:27;;;;;;;9.68;4.55;;;;;;;;;;5058249;28;20052;-87
2022/10/29 09:21:56;;;;;;;3.20;2.53;;;;;;;;;;5057527;28;20110;-86
2022/10/29 09:24:28;;;;;;;5.00;4.60;;;;;;;;;;5066539;28;20071;-85
2022/10/29 09:26:57;;;;;;;5.95;5.38;;;;;;;;;;5073853;28;20507;-86
2022/10/29 09:29:44;;;;;;;3.58;3.33;;;;;;;;;;5058956;28;20060;-86
2022/10/29 09:32:13;;;;;;;6.43;5.45;;;;;;;;;;5053658;28;20136;-86
2022/10/29 09:34:42;;;;;;;4.45;4.13;;;;;;;;;;5073124;28;20048;-87
2022/10/29 09:37:14;;;;;;;5.00;4.55;;;;;;;;;;5073688;28;20463;-87
2022/10/29 09:39:43;;;;;;;4.93;4.72;;;;;;;;;;5073331;28;20127;-86
2022/10/29 09:42:11;;;;;;;6.03;4.95;;;;;;;;;;5073833;28;20106;-86
2022/10/29 09:44:41;;;;;;;5.32;4.40;;;;;;;;;;5073494;28;20098;-86
2022/10/29 09:47:15;;;;;;;3.35;3.08;;;;;;;;;;5073486;28;20057;-86
2022/10/29 09:49:47;;;;;;;5.25;4.63;;;;;;;;;;5072304;28;20390;-87
2022/10/29 09:52:15;;;;;;;4.88;4.55;;;;;;;;;;5073379;28;20106;-87
2022/10/29 09:54:43;;;;;;;4.82;4.38;;;;;;;;;;5073284;28;20048;-85
2022/10/29 09:57:16;;;;;;;6.75;4.47;;;;;;;;;;5073308;28;20177;-85
2022/10/29 09:59:46;;;;;;;3.15;2.90;;;;;;;;;;5072898;28;20094;-85
2022/10/29 10:02:22;;;;;;;3.65;3.35;;;;;;;;;;5073022;28;20052;-87
2022/10/29 10:04:51;;;;;;;5.85;5.03;;;;;;;;;;5073134;28;20087;-87
2022/10/29 10:07:18;;;;;;;4.10;3.80;;;;;;;;;;5069631;28;20073;-86
2022/10/29 10:09:51;;;;;;;4.78;4.45;;;;;;;;;;5053528;28;20637;-87
2022/10/29 10:12:18;;;;;;;4.38;4.07;;;;;;;;;;5053543;28;20678;-88
2022/10/29 10:14:45;;;;;;;4.63;4.32;;;;;;;;;;5068308;28;20106;-87
2022/10/29 10:17:12;;;;;;;3.85;3.55;;;;;;;;;;5073198;28;20060;-88
2022/10/29 10:19:42;;;;;;;3.45;2.67;;;;;;;;;;5072911;28;20106;-87
2022/10/29 10:22:17;;;;;;;4.63;4.30;;;;;;;;;;5072979;28;20116;-88
2022/10/29 10:24:44;;;;;;;4.75;2.97;;;;;;;;;;5072489;28;20127;-87
2022/10/29 10:27:27;;;;;;;3.85;3.55;;;;;;;;;;5069945;28;21302;-87
2022/10/29 10:30:08;;;;;;;6.47;4.88;;;;;;;;;;5065724;28;20059;-89
2022/10/29 10:32:34;;;;;;;7.60;4.75;;;;;;;;;;5070658;28;20111;-89
2022/10/29 10:35:01;;;;;;;4.50;4.20;;;;;;;;;;5069053;28;20052;-89
2022/10/29 10:37:30;;;;;;;4.05;3.72;;;;;;;;;;5072703;28;20044;-89
2022/10/29 10:40:00;;;;;;;4.18;3.78;;;;;;;;;;5052334;28;20455;-89
2022/10/29 10:42:29;;;;;;;4.68;3.97;;;;;;;;;;5052684;28;20049;-88
2022/10/29 10:44:57;;;;;;;5.15;4.65;;;;;;;;;;5052678;28;20057;-88
2022/10/29 10:47:25;;;;;;;4.22;3.90;;;;;;;;;;5052930;28;20103;-89
2022/10/29 10:49:52;;;;;;;4.85;4.45;;;;;;;;;;5052921;28;20052;-88
2022/10/29 10:52:21;;;;;;;5.50;5.20;;;;;;;;;;5053328;28;20117;-88
2022/10/29 10:54:55;;;;;;;4.05;3.85;;;;;;;;;;5052072;28;20048;-88
2022/10/29 10:57:23;;;;;;;4.78;4.10;;;;;;;;;;5052652;28;20049;-89
2022/10/29 10:59:54;;;;;;;4.22;3.90;;;;;;;;;;5052959;28;20053;-89
2022/10/29 11:02:25;;;;;;;6.22;5.82;;;;;;;;;;5060292;28;20040;-88
2022/10/29 11:04:51;;;;;;;;;;;;;;;;;;5059435;28;20049;-88
2022/10/29 11:07:17;;;;;;;5.45;5.15;;;;;;;;;;5052612;28;19925;-88
2022/10/29 11:09:46;;;;;;;4.70;3.47;;;;;;;;;;5051885;28;20102;-88
2022/10/29 11:12:15;;;;;;;4.68;4.38;;;;;;;;;;5052323;28;20504;-88
2022/10/29 11:14:49;;;;;;;6.45;4.20;;;;;;;;;;5063632;28;20048;-88
2022/10/29 11:17:24;;;;;;;5.13;4.72;;;;;;;;;;5071800;28;20098;-85
2022/10/29 11:19:52;;;;;;;5.43;4.93;;;;;;;;;;5068410;28;20052;-86
2022/10/29 11:22:22;;;;;;;3.72;3.53;;;;;;;;;;5056384;28;20570;-88
2022/10/29 11:24:52;;;;;;;9.02;5.03;;;;;;;;;;5062971;28;20098;-90
2022/10/29 11:27:26;;;;;;;6.65;6.07;;;;;;;;;;5051521;28;20118;-90
2022/10/29 11:29:57;;;;;;;4.88;4.47;;;;;;;;;;5052785;28;20049;-90
2022/10/29 11:32:29;;;;;;;6.40;6.10;;;;;;;;;;5052640;28;20052;-90
2022/10/29 11:35:02;;;;;;;5.95;4.20;;;;;;;;;;5059777;28;20060;-90
2022/10/29 11:37:31;;;;;;;6.55;3.78;;;;;;;;;;5078970;28;20067;-90
2022/10/29 11:39:59;;;;;;;6.15;5.28;;;;;;;;;;5067190;28;20099;-89
2022/10/29 11:42:26;;;;;;;5.90;5.57;;;;;;;;;;5051514;28;20083;-89
2022/10/29 11:44:53;;;;;;;5.80;5.30;;;;;;;;;;5062419;28;20048;-90
2022/10/29 11:47:31;;;;;;;6.95;5.85;;;;;;;;;;5072782;28;20389;-90
2022/10/29 11:50:06;;;;;;;6.97;6.57;;;;;;;;;;5076926;28;20397;-89
2022/10/29 11:52:36;;;;;;;5.53;5.03;;;;;;;;;;5078318;28;20060;-90
2022/10/29 11:55:08;;;;;;;6.82;5.70;;;;;;;;;;5066136;28;20057;-90
2022/10/29 11:57:38;;;;;;;9.35;8.73;;;;;;;;;;5058201;28;20049;-90
2022/10/29 12:00:11;;;;;;;8.30;7.47;;;;;;;;;;5057964;28;20459;-89
2022/10/29 12:02:47;;;;;;;5.85;5.30;;;;;;;;;;5058291;28;20053;-90
2022/10/29 12:05:17;;;;;;;7.03;6.43;;;;;;;;;;5057368;28;20057;-90
2022/10/29 12:07:50;;;;;;;4.57;4.28;;;;;;;;;;5057635;28;20056;-90
2022/10/29 12:10:33;;;;;;;5.50;5.03;;;;;;;;;;5057243;28;20115;-89
2022/10/29 12:13:02;;;;;;;5.68;5.28;;;;;;;;;;5071043;28;20044;-88
2022/10/29 12:15:32;;;;;;;5.03;4.63;;;;;;;;;;5075029;28;20044;-89
2022/10/29 12:18:08;;;;;;;4.60;4.30;;;;;;;;;;5066838;28;20194;-90
2022/10/29 12:20:37;;;;;;;6.90;6.50;;;;;;;;;;5057802;28;20053;-90
2022/10/29 12:23:11;;;;;;;5.25;4.85;;;;;;;;;;5058253;28;20049;-89
2022/10/29 12:25:42;;;;;;;4.82;4.53;;;;;;;;;;5063144;28;20044;-91
2022/10/29 12:28:17;;;;;;;4.72;4.43;;;;;;;;;;5058117;28;20053;-90
2022/10/29 12:30:46;;;;;;;4.53;4.13;;;;;;;;;;5063792;28;20048;-89
2022/10/29 12:33:18;;;;;;;6.90;6.25;;;;;;;;;;5076240;28;20048;-90
2022/10/29 12:35:47;;;;;;;5.50;5.10;;;;;;;;;;5062077;28;20049;-90
2022/10/29 12:38:19;;;;;;;5.53;5.22;;;;;;;;;;5057928;28;20049;-90
2022/10/29 12:40:48;;;;;;;3.95;3.75;;;;;;;;;;5073130;28;20161;-90
2022/10/29 12:43:22;;;;;;;5.70;3.90;;;;;;;;;;5077452;28;20675;-90
2022/10/29 12:45:54;;;;;;;5.32;3.90;;;;;;;;;;5061191;28;20386;-90
2022/10/29 12:48:28;;;;;;;4.35;4.15;;;;;;;;;;5064522;28;20045;-90
2022/10/29 12:51:00;;;;;;;6.80;6.30;;;;;;;;;;5077004;28;20049;-90
2022/10/29 12:53:29;;;;;;;6.00;5.70;;;;;;;;;;5060227;28;20052;-91
2022/10/29 12:55:57;;;;;;;4.97;4.00;;;;;;;;;;5056875;28;20118;-89
2022/10/29 12:58:42;;;;;;;4.57;4.22;;;;;;;;;;5056737;28;20048;-89
2022/10/29 13:01:32;;;;;;;6.15;5.82;;;;;;;;;;5071452;28;20048;-90
2022/10/29 13:04:01;;;;;;;6.38;5.97;;;;;;;;;;5058902;28;20103;-91
2022/10/29 13:06:46;;;;;;;7.22;6.72;;;;;;;;;;5072807;28;20049;-90
2022/10/29 13:09:16;;;;;;;8.48;5.65;;;;;;;;;;5058784;28;20049;-90
2022/10/29 13:11:43;;;;;;;4.90;4.70;;;;;;;;;;5074380;28;20053;-92
2022/10/29 13:14:11;;;;;;;6.35;5.95;;;;;;;;;;5074447;28;20052;-89
2022/10/29 13:16:38;;;;;;;6.97;6.57;;;;;;;;;;5054264;28;20078;-90
2022/10/29 13:19:18;;;;;;;6.97;6.57;;;;;;;;;;5053564;28;20110;-89
2022/10/29 13:21:54;;;;;;;5.22;4.82;;;;;;;;;;5054386;28;20055;-89
2022/10/29 13:24:21;;;;;;;5.57;4.38;;;;;;;;;;5054263;28;20170;-90
2022/10/29 13:26:55;;;;;;;5.18;4.78;;;;;;;;;;5053646;28;20118;-87
2022/10/29 13:29:40;;;;;;;9.63;9.02;;;;;;;;;;5053282;28;20056;-88
2022/10/29 13:32:07;;;;;;;5.88;5.25;;;;;;;;;;5053207;28;20056;-90
2022/10/29 13:34:51;;;;;;;5.00;4.70;;;;;;;;;;5059886;28;20060;-87
2022/10/29 13:37:36;;;;;;;6.03;5.53;;;;;;;;;;5073302;28;20119;-87
2022/10/29 13:40:21;;;;;;;5.63;5.13;;;;;;;;;;5067236;28;20116;-88
2022/10/29 13:42:53;;;;;;;7.43;6.90;;;;;;;;;;5053085;28;20045;-88
2022/10/29 13:45:19;;;;;;;7.18;6.57;;;;;;;;;;5052929;28;20622;-87
2022/10/29 13:47:46;;;;;;;5.60;5.30;;;;;;;;;;5052273;28;20099;-87
2022/10/29 13:50:16;;;;;;;5.80;5.10;;;;;;;;;;5053038;28;20041;-87
2022/10/29 13:52:44;;;;;;;4.72;4.43;;;;;;;;;;5057068;28;20122;-87
2022/10/29 13:55:14;;;;;;;5.05;4.65;;;;;;;;;;5059084;28;20041;-87
2022/10/29 13:57:43;;;;;;;4.40;4.18;;;;;;;;;;5073027;28;20047;-89
2022/10/29 14:00:17;;;;;;;9.23;8.73;;;;;;;;;;5072452;28;20052;-88
2022/10/29 14:02:49;;;;;;;4.90;4.60;;;;;;;;;;5069072;28;20401;-88
2022/10/29 14:05:19;;;;;;;6.63;6.32;;;;;;;;;;5065209;28;20106;-88
2022/10/29 14:07:50;;;;;;;5.15;4.85;;;;;;;;;;5052254;28;20041;-88
2022/10/29 14:10:16;;;;;;;;;;;;;;;;;;5055505;28;20049;-88
2022/10/29 14:12:43;;;;;;;4.90;4.60;;;;;;;;;;5056374;28;19989;-88
2022/10/29 14:15:11;;;;;;;5.03;4.72;;;;;;;;;;5061229;28;20386;-88
2022/10/29 14:17:38;;;;;;;6.90;6.50;;;;;;;;;;5062580;28;20056;-88
2022/10/29 14:20:05;;;;;;;5.07;4.65;;;;;;;;;;5056470;28;20048;-89
2022/10/29 14:22:35;;;;;;;7.63;6.93;;;;;;;;;;5071931;28;20386;-88
2022/10/29 14:25:03;;;;;;;4.78;4.57;;;;;;;;;;5071616;28;20048;-88
2022/10/29 14:27:29;;;;;;;4.63;3.65;;;;;;;;;;5058397;28;20041;-88
2022/10/29 14:30:12;;;;;;;6.10;5.80;;;;;;;;;;5054561;28;20109;-88
2022/10/29 14:32:39;;;;;;;6.43;6.13;;;;;;;;;;5071624;28;20048;-88
2022/10/29 14:35:06;;;;;;;6.43;6.03;;;;;;;;;;5070860;28;20547;-89
2022/10/29 14:37:35;;;;;;;7.43;7.03;;;;;;;;;;5071827;28;20130;-86
2022/10/29 14:40:03;;;;;;;5.55;5.25;;;;;;;;;;5071379;28;20102;-85
2022/10/29 14:42:31;;;;;;;4.40;4.13;;;;;;;;;;5070638;28;20052;-86
2022/10/29 14:44:59;;;;;;;6.78;6.28;;;;;;;;;;5050432;28;20496;-86
2022/10/29 14:47:28;;;;;;;4.28;3.97;;;;;;;;;;5051424;28;20103;-86
2022/10/29 14:49:55;;;;;;;5.97;5.68;;;;;;;;;;5050877;28;20044;-86
2022/10/29 14:52:27;;;;;;;3.20;3.00;;;;;;;;;;5051319;28;20095;-86
2022/10/29 14:54:58;;;;;;;4.70;4.40;;;;;;;;;;5050108;28;20094;-86